createdAt,value
2022-08-23T00:00:15.522Z,27.00
2022-08-23T00:02:46.138Z,27.00
2022-08-23T00:05:14.518Z,27.00
2022-08-23T00:07:45.610Z,27.00
2022-08-23T00:10:17.312Z,27.00
2022-08-23T00:12:48.379Z,26.90
2022-08-23T00:15:19.303Z,26.90
2022-08-23T00:17:48.189Z,26.80
2022-08-23T00:20:19.773Z,26.80
2022-08-23T00:22:48.277Z,26.80
2022-08-23T00:25:17.511Z,26.80
2022-08-23T00:27:47.226Z,26.80
2022-08-23T00:30:17.791Z,26.70
2022-08-23T00:32:46.708Z,26.70
2022-08-23T00:35:27.087Z,26.70
2022-08-23T00:38:33.449Z,26.60
2022-08-23T00:40:52.142Z,26.60
2022-08-23T00:43:48.030Z,26.50
2022-08-23T00:46:47.692Z,26.50
2022-08-23T00:49:18.907Z,26.60
2022-08-23T00:51:54.322Z,26.60
2022-08-23T00:54:27.248Z,26.60
2022-08-23T00:56:59.049Z,26.60
2022-08-23T00:59:29.033Z,26.50
2022-08-23T01:01:57.479Z,26.40
2022-08-23T01:04:28.472Z,26.40
2022-08-23T01:07:05.119Z,26.40
2022-08-23T01:09:33.546Z,26.40
2022-08-23T01:12:09.975Z,26.30
2022-08-23T01:14:44.771Z,26.30
2022-08-23T01:17:20.826Z,26.30
2022-08-23T01:19:54.851Z,26.30
2022-08-23T01:22:31.346Z,26.30
2022-08-23T01:25:08.473Z,26.20
2022-08-23T01:27:40.398Z,26.20
2022-08-23T01:30:13.699Z,26.30
2022-08-23T01:32:49.037Z,26.20
2022-08-23T01:40:26.427Z,26.10
2022-08-23T01:42:55.057Z,26.10
2022-08-23T01:45:23.484Z,25.70
2022-08-23T01:47:51.811Z,25.80
2022-08-23T01:50:20.333Z,25.90
2022-08-23T01:52:48.735Z,26.10
2022-08-23T01:55:17.945Z,26.10
2022-08-23T01:57:50.611Z,26.10
2022-08-23T02:00:20.784Z,26.10
2022-08-23T02:02:49.116Z,26.10
2022-08-23T02:05:19.278Z,26.10
2022-08-23T02:07:48.220Z,26.00
2022-08-23T02:10:17.561Z,26.00
2022-08-23T02:12:48.000Z,25.90
2022-08-23T02:15:17.789Z,25.80
2022-08-23T02:17:46.617Z,25.80
2022-08-23T02:20:15.313Z,25.80
2022-08-23T02:22:43.907Z,25.90
2022-08-23T02:25:12.476Z,25.90
2022-08-23T02:27:44.038Z,25.90
2022-08-23T02:30:15.330Z,25.90
2022-08-23T02:32:44.237Z,25.80
2022-08-23T02:37:58.769Z,25.80
2022-08-23T02:40:27.338Z,25.80
2022-08-23T02:42:55.745Z,25.80
2022-08-23T02:45:25.521Z,25.80
2022-08-23T02:47:53.838Z,25.80
2022-08-23T02:50:22.632Z,25.80
2022-08-23T02:52:50.977Z,25.50
2022-08-23T02:55:20.343Z,25.40
2022-08-23T02:57:51.543Z,25.40
2022-08-23T03:00:21.519Z,25.50
2022-08-23T03:02:51.191Z,25.60
2022-08-23T03:05:19.758Z,25.60
2022-08-23T03:07:50.867Z,25.50
2022-08-23T03:10:19.218Z,25.60
2022-08-23T03:12:47.534Z,25.60
2022-08-23T03:15:15.997Z,25.60
2022-08-23T03:17:44.306Z,25.60
2022-08-23T03:20:14.234Z,25.60
2022-08-23T03:22:48.486Z,25.60
2022-08-23T03:25:23.854Z,25.60
2022-08-23T03:27:52.132Z,25.60
2022-08-23T03:30:20.579Z,25.60
2022-08-23T03:32:49.325Z,25.50
2022-08-23T03:35:19.403Z,25.50
2022-08-23T03:37:49.097Z,25.50
2022-08-23T03:40:20.637Z,25.40
2022-08-23T03:42:48.918Z,25.40
2022-08-23T03:45:17.278Z,25.40
2022-08-23T03:47:45.536Z,25.30
2022-08-23T03:50:13.847Z,25.40
2022-08-23T03:52:43.605Z,25.40
2022-08-23T03:55:12.076Z,25.50
2022-08-23T03:57:40.439Z,24.80
2022-08-23T04:00:11.901Z,24.80
2022-08-23T04:02:40.148Z,24.90
2022-08-23T04:05:10.937Z,25.00
2022-08-23T04:07:40.112Z,25.20
2022-08-23T04:10:15.062Z,25.10
2022-08-23T04:12:43.409Z,25.10
2022-08-23T04:15:13.507Z,25.00
2022-08-23T04:17:42.632Z,25.00
2022-08-23T04:20:12.058Z,25.10
2022-08-23T04:22:40.315Z,25.00
2022-08-23T04:25:33.231Z,25.00
2022-08-23T04:27:59.503Z,25.10
2022-08-23T04:30:29.003Z,25.10
2022-08-23T04:32:57.377Z,25.10
2022-08-23T04:35:26.609Z,25.00
2022-08-23T04:37:55.276Z,24.00
2022-08-23T04:40:42.569Z,23.70
2022-08-23T04:43:10.785Z,23.30
2022-08-23T04:45:40.178Z,23.60
2022-08-23T04:48:11.799Z,23.70
2022-08-23T04:50:41.179Z,23.60
2022-08-23T04:53:10.016Z,23.30
2022-08-23T04:55:39.825Z,23.90
2022-08-23T04:58:08.418Z,23.90
2022-08-23T05:00:36.795Z,23.90
2022-08-23T05:03:05.100Z,24.20
2022-08-23T05:05:33.559Z,24.40
2022-08-23T05:08:02.080Z,24.20
2022-08-23T05:10:30.521Z,24.70
2022-08-23T05:13:00.109Z,25.10
2022-08-23T05:15:28.378Z,24.40
2022-08-23T05:17:57.516Z,24.90
2022-08-23T05:20:26.466Z,25.20
2022-08-23T05:22:55.385Z,25.20
2022-08-23T05:25:24.405Z,23.80
2022-08-23T05:27:52.605Z,23.60
2022-08-23T05:30:22.332Z,24.30
2022-08-23T05:32:50.613Z,25.00
2022-08-23T05:35:18.980Z,23.80
2022-08-23T05:37:47.181Z,23.40
2022-08-23T05:40:15.612Z,23.90
2022-08-23T05:42:43.911Z,23.90
2022-08-23T05:45:12.301Z,24.00
2022-08-23T05:47:41.861Z,25.10
2022-08-23T05:50:11.441Z,25.00
2022-08-23T05:52:40.443Z,25.80
2022-08-23T05:55:09.524Z,25.70
2022-08-23T05:57:38.179Z,26.20
2022-08-23T06:00:09.227Z,25.40
2022-08-23T06:02:37.420Z,25.00
2022-08-23T06:05:08.148Z,26.00
2022-08-23T06:07:36.905Z,25.70
2022-08-23T06:10:06.348Z,25.10
2022-08-23T06:12:34.897Z,24.70
2022-08-23T06:15:03.734Z,25.70
2022-08-23T06:17:32.024Z,24.40
2022-08-23T06:20:00.254Z,23.90
2022-08-23T06:22:31.259Z,23.90
2022-08-23T06:24:59.526Z,23.80
2022-08-23T06:27:28.684Z,24.10
2022-08-23T06:29:56.868Z,23.80
2022-08-23T06:32:25.129Z,23.30
2022-08-23T06:34:59.826Z,23.50
2022-08-23T06:37:43.018Z,23.80
2022-08-23T06:40:11.934Z,24.80
2022-08-23T06:42:40.178Z,24.30
2022-08-23T06:45:09.440Z,25.30
2022-08-23T06:47:38.256Z,23.90
2022-08-23T06:50:07.534Z,24.50
2022-08-23T06:52:37.046Z,25.10
2022-08-23T06:55:13.132Z,25.40
2022-08-23T06:57:42.311Z,25.40
2022-08-23T07:00:12.622Z,25.80
2022-08-23T07:02:40.889Z,26.00
2022-08-23T07:05:10.245Z,25.30
2022-08-23T07:07:43.941Z,25.60
2022-08-23T07:10:15.664Z,25.30
2022-08-23T07:12:44.566Z,25.70
2022-08-23T07:15:13.516Z,25.30
2022-08-23T07:17:41.783Z,24.90
2022-08-23T07:20:10.694Z,26.00
2022-08-23T07:22:39.951Z,26.90
2022-08-23T07:25:08.983Z,27.10
2022-08-23T07:27:39.535Z,26.10
2022-08-23T07:30:09.296Z,26.60
2022-08-23T07:32:37.510Z,26.60
2022-08-23T07:35:07.629Z,26.70
2022-08-23T07:37:35.900Z,27.10
2022-08-23T07:40:07.270Z,26.50
2022-08-23T07:42:35.507Z,27.10
2022-08-23T07:45:06.208Z,26.60
2022-08-23T07:47:38.081Z,26.20
2022-08-23T07:50:07.727Z,27.60
2022-08-23T07:52:36.469Z,27.40
2022-08-23T07:55:05.397Z,27.60
2022-08-23T07:57:33.587Z,27.30
2022-08-23T08:00:01.818Z,26.30
2022-08-23T08:02:31.406Z,27.30
2022-08-23T08:04:59.698Z,27.30
2022-08-23T08:07:28.272Z,26.30
2022-08-23T08:10:03.749Z,26.40
2022-08-23T08:12:32.798Z,26.50
2022-08-23T08:15:01.453Z,26.50
2022-08-23T08:17:31.024Z,26.90
2022-08-23T08:19:59.282Z,27.20
2022-08-23T08:22:27.607Z,27.50
2022-08-23T08:24:55.883Z,27.30
2022-08-23T08:27:24.113Z,28.40
